Terminal Aerodrome Forecast
Issued by NWS

Home | Current Version | Previous Version | Text Only | Print | Product List | Glossary On
Versions: 1 2 3 4 5 6 7 8 9 10 11 12 13 14 15 16 17 18 19
909
FTUS43 KLSX 212328
TAFUIN
TAF
KUIN 212328Z 2200/2224 VRB03KT P6SM BKN200
     FM220600 03005KT P6SM OVC045
     FM221200 02008KT 5SM BR OVC010
     FM221600 35014KT P6SM BKN025
     FM221900 34016KT P6SM BKN050=

USA.gov is the U.S. government's official web portal to all federal, state and local government web resources and services.